»·PEaware :: FFT2154 KBOI-KLAS

FFT2154 :: KBOI-KLAS

FLIGHT INFORMATION

Flight Status: Arrived
Operator:
Frontier Airlines
More flights by this operator :: More flights under this callsign
Pilot: Will K. (13011)
Aircraft: AIRBUS A320
(A320)
More flights by this aircraft type
Origin: KBOI Boise Air Terminal/Gowen
United States
Destination: KLAS McCarran Intl
United States
More flights between these airports :: More routes between these airports
Route: +BOI3 ROARR LYONS CRITO WINEN MPIRE SITEE3
File this flight plan on PilotEdge
Remarks:
Altitude:
(Current/Filed)
35,000ft
Speed:
(Current/Filed)
500kts
Departed: 19-Dec-18 04:34 PM
Arrived: 19-Dec-18 06:01 PM
Distance/Time
Traveled:
452nm/1:26
Distance/Time
To Go:
Arrived

Flight Plot

Page will automatically refresh every two minutes.

Flight plan parsing failed; only flown route is shown


Map Options




Map Legend


Flown Route
Filed Route
Departure Airport
Arrival Airport
Navaid (VOR, NDB)
Fix

Horizontal Profiles

Position Reports

Time Latitude Longitude Heading Altitude Ground
Speed
19-Dec-18 15:57 43.567401 -116.218417 257 2852ft 0kts
19-Dec-18 15:58 43.567401 -116.218417 257 2852ft 0kts
19-Dec-18 15:59 43.567401 -116.218417 257 2852ft 0kts
19-Dec-18 16:00 43.567401 -116.218417 257 2852ft 0kts
19-Dec-18 16:01 43.567401 -116.218417 257 2852ft 0kts
19-Dec-18 16:02 43.567401 -116.218417 257 2852ft 0kts
19-Dec-18 16:03 43.567401 -116.218417 257 2852ft 0kts
19-Dec-18 16:04 43.567401 -116.218417 257 2852ft 0kts
19-Dec-18 16:05 43.567401 -116.218417 257 2852ft 0kts
19-Dec-18 16:06 43.567401 -116.218417 257 2852ft 0kts
19-Dec-18 16:07 43.567401 -116.218417 257 2852ft 0kts
19-Dec-18 16:08 43.567401 -116.218417 257 2852ft 0kts
19-Dec-18 16:09 43.567401 -116.218417 257 2852ft 0kts
19-Dec-18 16:10 43.567401 -116.218417 257 2852ft 0kts
19-Dec-18 16:11 43.567401 -116.218417 257 2852ft 0kts
19-Dec-18 16:12 43.567401 -116.218417 257 2852ft 0kts
19-Dec-18 16:12 43.567401 -116.218417 257 2852ft 0kts
19-Dec-18 16:14 43.567401 -116.218417 257 2852ft 0kts
19-Dec-18 16:14 43.567401 -116.218417 257 2852ft 0kts
19-Dec-18 16:16 43.567401 -116.218417 257 2852ft 0kts
19-Dec-18 16:16 43.567401 -116.218417 257 2852ft 0kts
19-Dec-18 16:17 43.567401 -116.218417 257 2852ft 0kts
19-Dec-18 16:18 43.567462 -116.218053 257 2853ft 2kts
19-Dec-18 16:19 43.567594 -116.217532 176 2854ft 0kts
19-Dec-18 16:20 43.567661 -116.217547 175 2853ft 0kts
19-Dec-18 16:21 43.567660 -116.217547 175 2853ft 0kts
19-Dec-18 16:22 43.567660 -116.217547 175 2853ft 0kts
19-Dec-18 16:23 43.567660 -116.217547 175 2853ft 0kts
19-Dec-18 16:24 43.567660 -116.217547 175 2853ft 0kts
19-Dec-18 16:25 43.567660 -116.217547 175 2853ft 0kts
19-Dec-18 16:26 43.565238 -116.217325 196 2857ft 9kts
19-Dec-18 16:27 43.566794 -116.223338 295 2850ft 21kts
19-Dec-18 16:28 43.568931 -116.229603 295 2843ft 17kts
19-Dec-18 16:29 43.570900 -116.235397 295 2832ft 0kts
19-Dec-18 16:30 43.570900 -116.235397 295 2832ft 0kts
19-Dec-18 16:31 43.570900 -116.235397 295 2832ft 0kts
19-Dec-18 16:32 43.570649 -116.236426 198 2830ft 9kts
19-Dec-18 16:33 43.566889 -116.227098 115 2846ft 113kts
19-Dec-18 16:34 43.543355 -116.163919 114 4998ft 218kts
19-Dec-18 16:35 43.513806 -116.077004 114 7762ft 279kts
19-Dec-18 16:36 43.479992 -115.977298 114 11122ft 302kts
19-Dec-18 16:37 43.440600 -115.861730 114 13369ft 348kts
19-Dec-18 16:38 43.401226 -115.736945 111 16122ft 362kts
19-Dec-18 16:39 43.368756 -115.626575 111 18205ft 374kts
19-Dec-18 16:40 43.328489 -115.491386 111 20435ft 386kts
19-Dec-18 16:41 43.281776 -115.356778 132 22412ft 399kts
19-Dec-18 16:42 43.199786 -115.249406 136 24226ft 410kts
19-Dec-18 16:43 43.115791 -115.140320 136 25866ft 421kts
19-Dec-18 16:44 43.030507 -115.030029 136 27348ft 430kts
19-Dec-18 16:57 42.825229 -114.766468 140 27541ft 531kts
19-Dec-18 16:58 42.696439 -114.700128 189 28732ft 491kts
19-Dec-18 16:59 42.559370 -114.693903 190 29999ft 498kts
19-Dec-18 17:00 42.419897 -114.687437 190 31115ft 508kts
19-Dec-18 17:01 42.278052 -114.680851 190 32333ft 511kts
19-Dec-18 17:02 42.136624 -114.674326 190 33648ft 509kts
19-Dec-18 17:03 41.995441 -114.667867 190 34913ft 506kts
19-Dec-18 17:04 41.854658 -114.661472 190 35394ft 504kts
19-Dec-18 17:05 41.714006 -114.655117 190 35398ft 505kts
19-Dec-18 17:06 41.573708 -114.648781 190 35399ft 505kts
19-Dec-18 17:07 41.432856 -114.642460 190 35400ft 505kts
19-Dec-18 17:08 41.292676 -114.636201 190 35399ft 505kts
19-Dec-18 17:09 41.154203 -114.630002 189 35446ft 498kts
19-Dec-18 17:10 41.016432 -114.623920 188 35383ft 495kts
19-Dec-18 17:11 40.879889 -114.617911 188 35359ft 494kts
19-Dec-18 17:12 40.742473 -114.611881 188 35365ft 494kts
19-Dec-18 17:13 40.605299 -114.605888 188 35416ft 495kts
19-Dec-18 17:14 40.467663 -114.599900 188 35429ft 497kts
19-Dec-18 17:15 40.329672 -114.593909 188 35453ft 499kts
19-Dec-18 17:16 40.191126 -114.587931 188 35435ft 499kts
19-Dec-18 17:17 40.052636 -114.581973 188 35411ft 500kts
19-Dec-18 17:18 39.913848 -114.576019 188 35422ft 500kts
19-Dec-18 17:19 39.775161 -114.570088 188 35412ft 498kts
19-Dec-18 17:20 39.637134 -114.564226 188 35396ft 498kts
19-Dec-18 17:21 39.499416 -114.558399 188 35387ft 497kts
19-Dec-18 17:22 39.360944 -114.552560 187 35394ft 498kts
19-Dec-18 17:23 39.226408 -114.492993 153 35416ft 537kts
19-Dec-18 17:24 39.099483 -114.392949 153 35412ft 535kts
19-Dec-18 17:25 38.972678 -114.294152 154 35394ft 533kts
19-Dec-18 17:26 38.845561 -114.195562 153 35373ft 531kts
19-Dec-18 17:27 38.719737 -114.098391 153 35367ft 530kts
19-Dec-18 17:28 38.593260 -114.001123 153 35384ft 532kts
19-Dec-18 17:29 38.466588 -113.904105 153 35394ft 534kts
19-Dec-18 17:30 38.339163 -113.806904 153 35415ft 535kts
19-Dec-18 17:31 38.211248 -113.709734 153 35402ft 535kts
19-Dec-18 17:32 38.083580 -113.613138 153 35399ft 536kts
19-Dec-18 17:33 37.955029 -113.519287 162 35398ft 531kts
19-Dec-18 17:34 37.817295 -113.502012 189 35403ft 503kts
19-Dec-18 17:35 37.678341 -113.504506 189 35344ft 500kts
19-Dec-18 17:36 37.541597 -113.515385 207 35337ft 479kts
19-Dec-18 17:37 37.423634 -113.582795 216 35366ft 464kts
19-Dec-18 17:38 37.307565 -113.652091 216 35362ft 464kts
19-Dec-18 17:39 37.190820 -113.721731 216 35349ft 465kts
19-Dec-18 17:40 37.072079 -113.792340 215 32586ft 484kts
19-Dec-18 17:41 36.950150 -113.864465 214 29490ft 486kts
19-Dec-18 17:42 36.831205 -113.934518 214 27496ft 463kts
19-Dec-18 17:43 36.717130 -114.001611 213 25236ft 448kts
19-Dec-18 17:44 36.606769 -114.066295 213 23005ft 431kts
19-Dec-18 17:45 36.533346 -114.167364 245 20534ft 389kts
19-Dec-18 17:46 36.477318 -114.276733 244 16689ft 362kts
19-Dec-18 17:47 36.424084 -114.380459 242 12637ft 343kts
19-Dec-18 17:48 36.377501 -114.470816 242 11850ft 295kts
19-Dec-18 17:49 36.333670 -114.556201 242 10881ft 292kts
19-Dec-18 17:50 36.285088 -114.635567 207 9960ft 296kts
19-Dec-18 17:51 36.206830 -114.669958 200 9220ft 299kts
19-Dec-18 17:52 36.128357 -114.703726 199 8496ft 297kts
19-Dec-18 17:53 36.074288 -114.756562 274 8048ft 237kts
19-Dec-18 17:54 36.074408 -114.835748 272 7573ft 233kts
19-Dec-18 17:55 36.074112 -114.916030 272 6436ft 222kts
19-Dec-18 17:56 36.073926 -114.985805 272 5210ft 182kts
19-Dec-18 17:57 36.073804 -115.047193 270 3308ft 176kts
19-Dec-18 17:58 36.073699 -115.099403 270 2513ft 138kts
19-Dec-18 18:00 36.073666 -115.141406 270 2091ft 47kts
19-Dec-18 18:01 36.074741 -115.145928 300 2104ft 4kts
19-Dec-18 18:02 36.075714 -115.146556 359 2106ft 15kts
19-Dec-18 18:03 36.079543 -115.146729 29 2098ft 0kts
19-Dec-18 18:04 36.079543 -115.146729 29 2098ft 0kts
19-Dec-18 18:05 36.079543 -115.146729 29 2098ft 0kts
19-Dec-18 18:06 36.079543 -115.146729 29 2098ft 0kts
19-Dec-18 18:07 36.079543 -115.146729 29 2098ft 0kts

Navigation Log

Ident Type
Flight plan parsing failed, navigation log unavailable